createdAt,value
2022-08-07T00:00:26.315Z,100303.59
2022-08-07T00:02:56.075Z,100298.47
2022-08-07T00:05:24.133Z,100307.31
2022-08-07T00:08:00.290Z,100303.53
2022-08-07T00:10:31.417Z,100305.22
2022-08-07T00:13:03.211Z,100300.13
2022-08-07T00:15:46.826Z,100304.81
2022-08-07T00:18:24.303Z,100301.59
2022-08-07T00:20:54.927Z,100296.44
2022-08-07T00:23:28.365Z,100289.91
2022-08-07T00:26:00.125Z,100294.66
2022-08-07T00:28:34.015Z,100292.06
2022-08-07T00:31:05.856Z,100296.03
2022-08-07T00:33:34.754Z,100291.13
2022-08-07T00:36:04.112Z,100291.75
2022-08-07T00:38:34.968Z,100277.66
2022-08-07T00:41:05.133Z,100281.69
2022-08-07T00:44:01.747Z,100285.53
2022-08-07T00:46:26.257Z,100281.97
2022-08-07T00:48:54.096Z,100281.81
2022-08-07T00:51:22.219Z,100280.19
2022-08-07T00:53:57.304Z,100278.41
2022-08-07T00:56:30.406Z,100277.38
2022-08-07T00:59:02.304Z,100274.75
2022-08-07T01:04:10.026Z,100276.25
2022-08-07T01:06:38.578Z,100277.06
2022-08-07T01:09:08.467Z,100275.09
2022-08-07T01:12:10.078Z,100279.66
2022-08-07T01:14:37.228Z,100274.84
2022-08-07T01:17:07.200Z,100289.56
2022-08-07T01:19:38.390Z,100286.00
2022-08-07T01:22:09.338Z,100281.84
2022-08-07T01:24:50.947Z,100291.13
2022-08-07T01:27:19.322Z,100275.97
2022-08-07T01:29:48.078Z,100279.66
2022-08-07T01:32:18.893Z,100278.78
2022-08-07T01:34:47.327Z,100278.69
2022-08-07T01:37:18.963Z,100280.31
2022-08-07T01:39:48.830Z,100289.41
2022-08-07T01:42:38.729Z,100289.22
2022-08-07T01:45:09.686Z,100281.75
2022-08-07T01:48:20.560Z,100284.78
2022-08-07T01:50:28.933Z,100283.19
2022-08-07T01:53:01.632Z,100282.16
2022-08-07T01:55:40.639Z,100283.19
2022-08-07T01:58:29.179Z,100278.28
2022-08-07T02:01:10.012Z,100279.22
2022-08-07T02:03:57.570Z,100287.66
2022-08-07T02:06:31.679Z,100288.50
2022-08-07T02:12:02.681Z,100282.31
2022-08-07T02:14:40.403Z,100286.69
2022-08-07T02:17:11.235Z,100271.44
2022-08-07T02:22:31.719Z,100273.34
2022-08-07T02:25:02.089Z,100274.09
2022-08-07T02:27:36.353Z,100270.28
2022-08-07T02:30:18.624Z,100274.81
2022-08-07T02:33:01.002Z,100266.13
2022-08-07T02:36:28.563Z,100264.63
2022-08-07T02:38:34.186Z,100262.44
2022-08-07T02:41:05.456Z,100254.94
2022-08-07T02:43:39.737Z,100257.50
2022-08-07T02:46:09.746Z,100249.56
2022-08-07T02:48:37.963Z,100251.72
2022-08-07T02:51:29.090Z,100249.41
2022-08-07T02:53:59.943Z,100254.94
2022-08-07T02:59:05.733Z,100244.91
2022-08-07T03:01:39.892Z,100247.41
2022-08-07T03:04:12.894Z,100245.25
2022-08-07T03:06:44.835Z,100239.34
2022-08-07T03:09:14.602Z,100239.34
2022-08-07T03:12:05.758Z,100238.06
2022-08-07T03:14:36.985Z,100244.03
2022-08-07T03:17:06.108Z,100238.31
2022-08-07T03:19:37.527Z,100239.50
2022-08-07T03:22:07.117Z,100237.75
2022-08-07T03:24:37.141Z,100240.09
2022-08-07T03:27:09.613Z,100238.44
2022-08-07T03:29:46.065Z,100231.28
2022-08-07T03:32:22.714Z,100242.81
2022-08-07T03:35:17.138Z,100244.38
2022-08-07T03:37:46.402Z,100244.09
2022-08-07T03:40:22.361Z,100246.09
2022-08-07T03:42:52.817Z,100240.31
2022-08-07T03:45:30.895Z,100252.47
2022-08-07T03:48:00.408Z,100247.25
2022-08-07T03:50:29.686Z,100240.69
2022-08-07T03:52:59.156Z,100249.75
2022-08-07T03:55:52.843Z,100244.94
2022-08-07T03:59:05.566Z,100247.81
2022-08-07T04:01:11.169Z,100246.56
2022-08-07T04:03:53.133Z,100251.28
2022-08-07T04:06:37.308Z,100251.78
2022-08-07T04:09:08.516Z,100256.13
2022-08-07T04:12:25.501Z,100251.03
2022-08-07T04:14:37.249Z,100249.97
2022-08-07T04:17:20.321Z,100251.66
2022-08-07T04:19:52.239Z,100248.63
2022-08-07T04:22:28.983Z,100252.84
2022-08-07T04:25:00.849Z,100259.38
2022-08-07T04:27:35.406Z,100256.97
2022-08-07T04:30:11.875Z,100246.94
2022-08-07T04:32:49.203Z,100248.69
2022-08-07T04:35:26.984Z,100244.72
2022-08-07T04:38:05.591Z,100261.94
2022-08-07T04:40:34.947Z,100261.72
2022-08-07T04:43:03.575Z,100261.81
2022-08-07T04:48:36.744Z,100264.38
2022-08-07T04:51:09.029Z,100262.66
2022-08-07T04:54:01.757Z,100266.34
2022-08-07T04:58:07.303Z,100263.34
2022-08-07T05:00:12.242Z,100270.72
2022-08-07T05:02:28.618Z,100281.41
2022-08-07T05:05:11.939Z,100268.94
2022-08-07T05:07:59.752Z,100281.81
2022-08-07T05:10:34.366Z,100267.25
2022-08-07T05:14:44.524Z,100275.03
2022-08-07T05:15:59.212Z,100275.88
2022-08-07T05:18:36.678Z,100281.59
2022-08-07T05:21:06.761Z,100279.63
2022-08-07T05:23:39.820Z,100279.69
2022-08-07T05:26:18.777Z,100279.97
2022-08-07T05:28:57.883Z,100282.31
2022-08-07T05:31:35.337Z,100279.00
2022-08-07T05:34:10.898Z,100278.66
2022-08-07T05:36:41.694Z,100281.06
2022-08-07T05:40:05.382Z,100285.38
2022-08-07T05:42:00.245Z,100290.06
2022-08-07T05:44:34.978Z,100289.66
2022-08-07T05:47:17.890Z,100294.41
2022-08-07T05:49:49.911Z,100299.56
2022-08-07T05:52:20.046Z,100297.88
2022-08-07T05:54:55.374Z,100304.47
2022-08-07T06:00:00.291Z,100292.06
2022-08-07T06:02:32.512Z,100302.06
2022-08-07T06:05:06.537Z,100292.03
2022-08-07T06:08:14.647Z,100290.59
2022-08-07T06:10:25.101Z,100300.88
2022-08-07T06:15:21.931Z,100297.50
2022-08-07T06:18:08.052Z,100301.34
2022-08-07T06:20:50.422Z,100289.09
2022-08-07T06:24:36.943Z,100297.22
2022-08-07T06:26:27.409Z,100294.63
2022-08-07T06:28:58.970Z,100296.16
2022-08-07T06:31:49.373Z,100294.19
2022-08-07T06:34:14.925Z,100298.91
2022-08-07T06:36:44.226Z,100294.25
2022-08-07T06:40:16.245Z,100290.16
2022-08-07T06:42:05.661Z,100289.97
2022-08-07T06:44:39.559Z,100291.47
2022-08-07T06:47:10.357Z,100296.16
2022-08-07T06:49:51.707Z,100296.22
2022-08-07T06:52:31.531Z,100291.50
2022-08-07T06:55:31.624Z,100281.44
2022-08-07T06:58:05.211Z,100288.00
2022-08-07T07:00:39.794Z,100292.34
2022-08-07T07:03:13.923Z,100291.94
2022-08-07T07:06:02.626Z,100290.31
2022-08-07T07:08:33.275Z,100287.03
2022-08-07T07:11:14.060Z,100282.00
2022-08-07T07:13:57.583Z,100282.53
2022-08-07T07:16:31.955Z,100284.13
2022-08-07T07:19:33.906Z,100278.00
2022-08-07T07:22:04.621Z,100285.09
2022-08-07T07:24:56.751Z,100282.78
2022-08-07T07:27:35.856Z,100286.84
2022-08-07T07:30:26.535Z,100285.75
2022-08-07T07:35:54.223Z,100285.00
2022-08-07T07:38:26.537Z,100278.41
2022-08-07T07:41:02.211Z,100273.59
2022-08-07T07:44:14.475Z,100271.94
2022-08-07T07:46:40.020Z,100270.38
2022-08-07T07:50:34.516Z,100272.75
2022-08-07T07:52:02.430Z,100268.41
2022-08-07T07:54:33.480Z,100277.41
2022-08-07T07:57:06.933Z,100270.94
2022-08-07T07:59:51.546Z,100265.56
2022-08-07T08:02:34.334Z,100258.25
2022-08-07T08:05:05.398Z,100263.81
2022-08-07T08:07:51.445Z,100252.03
2022-08-07T08:10:35.696Z,100256.47
2022-08-07T08:13:10.321Z,100256.34
2022-08-07T08:15:58.713Z,100256.22
2022-08-07T08:18:29.245Z,100255.66
2022-08-07T08:21:00.019Z,100259.97
2022-08-07T08:23:48.642Z,100249.41
2022-08-07T08:26:37.188Z,100244.97
2022-08-07T08:29:08.424Z,100241.16
2022-08-07T08:34:29.297Z,100241.22
2022-08-07T08:36:58.966Z,100236.94
2022-08-07T08:39:39.504Z,100234.06
2022-08-07T08:42:27.891Z,100234.22
2022-08-07T08:45:04.494Z,100234.03
2022-08-07T08:47:52.402Z,100229.34
2022-08-07T08:50:35.250Z,100227.56
2022-08-07T08:53:20.488Z,100237.19
2022-08-07T08:55:54.848Z,100236.75
2022-08-07T08:58:35.193Z,100235.56
2022-08-07T09:01:15.178Z,100218.16
2022-08-07T09:03:52.696Z,100218.47
2022-08-07T09:06:33.887Z,100211.34
2022-08-07T09:09:23.629Z,100214.41
2022-08-07T09:12:20.225Z,100213.47
2022-08-07T09:16:25.688Z,100209.22
2022-08-07T09:18:15.780Z,100218.66
2022-08-07T09:24:29.004Z,100212.75
2022-08-07T09:30:03.873Z,100206.22
2022-08-07T09:32:18.725Z,100214.78
2022-08-07T09:35:00.115Z,100202.88
2022-08-07T09:40:27.955Z,100202.53
2022-08-07T09:47:24.103Z,100191.78
2022-08-07T09:48:50.205Z,100192.19
2022-08-07T09:52:16.825Z,100186.75
2022-08-07T09:54:42.278Z,100182.97
2022-08-07T10:00:08.263Z,100177.69
2022-08-07T10:03:08.310Z,100171.34
2022-08-07T10:06:12.176Z,100168.00
2022-08-07T10:09:34.538Z,100164.16
2022-08-07T10:15:44.486Z,100164.81
2022-08-07T10:24:40.632Z,100135.66
2022-08-07T10:27:46.728Z,100136.59
2022-08-07T10:30:19.085Z,100132.81
2022-08-07T10:34:05.833Z,100122.19
2022-08-07T10:36:37.643Z,100113.28
2022-08-07T10:39:17.434Z,100117.22
2022-08-07T10:42:09.308Z,100114.28
2022-08-07T10:44:57.606Z,100110.41
2022-08-07T10:50:25.925Z,100107.03
2022-08-07T10:53:05.383Z,100107.13
2022-08-07T10:55:45.050Z,100102.34
2022-08-07T10:58:32.000Z,100101.25
2022-08-07T11:01:22.327Z,100105.91
2022-08-07T11:04:23.185Z,100098.72
2022-08-07T11:06:56.450Z,100096.81
2022-08-07T11:10:08.672Z,100091.00
2022-08-07T11:12:31.985Z,100097.38
2022-08-07T11:15:14.491Z,100093.16
2022-08-07T11:17:47.904Z,100086.75
2022-08-07T11:20:24.392Z,100088.84
2022-08-07T11:23:01.472Z,100085.22
2022-08-07T11:25:47.842Z,100081.28
2022-08-07T11:28:24.664Z,100070.13
2022-08-07T11:30:57.798Z,100071.22
2022-08-07T11:33:53.526Z,100071.25
2022-08-07T11:39:20.361Z,100058.19
2022-08-07T11:42:02.018Z,100055.22
2022-08-07T11:44:52.296Z,100059.31
2022-08-07T11:47:55.853Z,100050.34
2022-08-07T11:50:57.609Z,100042.78
2022-08-07T11:56:27.220Z,100042.91
2022-08-07T12:04:43.088Z,100047.53
2022-08-07T12:07:27.048Z,100038.22
2022-08-07T12:15:46.106Z,100045.91
2022-08-07T12:24:07.053Z,100028.00
2022-08-07T12:26:46.921Z,100031.13
2022-08-07T12:29:37.326Z,100028.31
2022-08-07T12:37:27.750Z,100011.88
2022-08-07T12:39:59.284Z,100011.66
2022-08-07T12:47:49.349Z,100008.25
2022-08-07T12:50:34.053Z,100012.75
2022-08-07T12:53:18.620Z,100001.81
2022-08-07T13:04:05.246Z,99993.78
2022-08-07T13:07:00.500Z,99989.09
2022-08-07T13:15:31.650Z,99983.97
2022-08-07T13:24:03.922Z,99963.94
2022-08-07T13:42:21.539Z,99950.81
2022-08-07T13:47:27.775Z,99945.63
2022-08-07T13:55:37.103Z,99934.28
2022-08-07T14:08:54.763Z,99925.56
2022-08-07T14:24:29.167Z,99919.09
2022-08-07T14:35:43.264Z,99906.13
2022-08-07T15:00:03.683Z,99899.19
2022-08-07T15:07:51.028Z,99900.22
2022-08-07T15:25:14.831Z,99881.50
2022-08-07T15:38:29.868Z,99868.31
2022-08-07T15:46:38.406Z,99858.94
2022-08-07T15:49:14.555Z,99865.25
2022-08-07T16:08:29.097Z,99848.28
2022-08-07T16:10:15.555Z,99845.41
2022-08-07T16:32:46.356Z,99826.84
2022-08-07T16:39:00.566Z,99830.97
2022-08-07T16:53:48.318Z,99824.91
2022-08-07T16:56:21.146Z,99827.25
2022-08-07T17:13:24.228Z,99819.63
2022-08-07T17:16:20.175Z,99824.31
2022-08-07T17:19:18.132Z,99824.03
2022-08-07T17:38:55.378Z,99825.34
2022-08-07T17:42:04.580Z,99832.19
2022-08-07T17:52:53.839Z,99827.09
2022-08-07T17:55:59.998Z,99829.34
2022-08-07T17:58:29.995Z,99830.31
2022-08-07T18:01:20.787Z,99825.63
2022-08-07T18:06:43.577Z,99824.75
2022-08-07T18:12:20.239Z,99828.06
2022-08-07T18:18:45.095Z,99831.09
2022-08-07T18:21:04.569Z,99830.47
2022-08-07T18:23:43.239Z,99838.72
2022-08-07T18:26:19.517Z,99834.72
2022-08-07T18:35:10.355Z,99847.78
2022-08-07T18:38:59.590Z,99850.78
2022-08-07T18:41:08.121Z,99847.75
2022-08-07T18:43:51.330Z,99850.38
2022-08-07T18:46:31.847Z,99847.69
2022-08-07T18:50:18.974Z,99847.75
2022-08-07T18:52:40.785Z,99855.41
2022-08-07T18:55:41.794Z,99852.50
2022-08-07T18:58:22.592Z,99862.53
2022-08-07T19:03:44.718Z,99859.03
2022-08-07T19:06:21.529Z,99855.00
2022-08-07T19:09:55.389Z,99858.28
2022-08-07T19:12:18.013Z,99870.53
2022-08-07T19:15:02.455Z,99877.84
2022-08-07T19:23:17.989Z,99882.03
2022-08-07T19:26:23.164Z,99890.13
2022-08-07T19:30:53.821Z,99894.75
2022-08-07T19:31:57.728Z,99902.50
2022-08-07T19:34:34.490Z,99897.00
2022-08-07T19:37:17.289Z,99901.91
2022-08-07T19:39:57.988Z,99904.34
2022-08-07T19:42:39.932Z,99899.41
2022-08-07T19:46:04.790Z,99905.38
2022-08-07T19:48:05.106Z,99903.59
2022-08-07T19:50:53.184Z,99900.34
2022-08-07T19:54:33.903Z,99911.69
2022-08-07T19:58:01.869Z,99922.97
2022-08-07T19:59:03.348Z,99917.66
2022-08-07T20:01:52.143Z,99923.97
2022-08-07T20:04:31.962Z,99918.63
2022-08-07T20:07:09.180Z,99916.88
2022-08-07T20:10:33.363Z,99922.97
2022-08-07T20:12:38.161Z,99932.69
2022-08-07T20:15:18.923Z,99927.81
2022-08-07T20:18:01.755Z,99928.91
2022-08-07T20:20:34.877Z,99934.16
2022-08-07T20:23:22.898Z,99921.72
2022-08-07T20:25:56.821Z,99936.97
2022-08-07T20:28:31.735Z,99928.97
2022-08-07T20:31:01.628Z,99933.88
2022-08-07T20:33:36.643Z,99941.56
2022-08-07T20:36:10.285Z,99940.97
2022-08-07T20:38:59.858Z,99937.06
2022-08-07T20:41:34.178Z,99942.00
2022-08-07T20:44:10.374Z,99942.44
2022-08-07T20:46:45.019Z,99949.66
2022-08-07T20:50:00.876Z,99950.56
2022-08-07T20:54:53.020Z,99947.88
2022-08-07T20:57:24.789Z,99952.38
2022-08-07T21:00:06.191Z,99953.22
2022-08-07T21:03:01.834Z,99949.88
2022-08-07T21:05:51.516Z,99947.97
2022-08-07T21:08:36.559Z,99953.44
2022-08-07T21:13:58.009Z,99946.88
2022-08-07T21:27:02.641Z,99949.50
2022-08-07T21:32:47.200Z,99959.00
2022-08-07T21:35:34.840Z,99956.81
2022-08-07T21:40:51.049Z,99949.19
2022-08-07T21:43:23.824Z,99946.78
2022-08-07T21:49:00.593Z,99951.88
2022-08-07T21:54:35.336Z,99958.09
2022-08-07T22:00:06.124Z,99962.47
2022-08-07T22:02:44.766Z,99965.97
2022-08-07T22:05:22.099Z,99971.31
2022-08-07T22:08:06.760Z,99967.22
2022-08-07T22:10:42.427Z,99967.22
2022-08-07T22:13:15.992Z,99963.28
2022-08-07T22:16:39.391Z,99958.72
2022-08-07T22:21:20.607Z,99966.03
2022-08-07T22:23:55.878Z,99964.41
2022-08-07T22:29:08.880Z,99965.72
2022-08-07T22:32:00.022Z,99975.97
2022-08-07T22:34:52.942Z,99972.53
2022-08-07T22:40:28.131Z,99973.66
2022-08-07T22:43:02.196Z,99985.16
2022-08-07T22:46:40.681Z,99978.22
2022-08-07T22:49:02.237Z,99983.06
2022-08-07T22:51:57.387Z,99985.47
2022-08-07T22:54:49.193Z,99991.41
2022-08-07T22:57:42.026Z,99994.59
2022-08-07T23:03:13.679Z,99993.28
2022-08-07T23:06:16.706Z,99997.00
2022-08-07T23:10:03.391Z,99993.28
2022-08-07T23:12:32.663Z,100001.81
2022-08-07T23:15:12.006Z,99996.22
2022-08-07T23:21:04.341Z,99999.94
2022-08-07T23:24:06.858Z,99999.16
2022-08-07T23:26:57.179Z,99999.69
2022-08-07T23:30:38.358Z,100005.84
2022-08-07T23:34:20.300Z,99999.41
2022-08-07T23:38:54.629Z,100010.09
2022-08-07T23:41:47.566Z,100001.28
2022-08-07T23:47:42.003Z,99994.06
2022-08-07T23:50:37.665Z,99999.16
2022-08-07T23:53:22.937Z,99997.78
2022-08-07T23:56:21.166Z,100002.06
2022-08-07T23:59:00.241Z,99996.72
